Terminal Aerodrome Forecast
Issued by NWS

Home | Current Version | Previous Version | Text Only | Print | Product List | Glossary On
Versions: 1 2 3 4 5 6 7 8 9 10 11 12 13 14 15 16 17 18 19 20 21 22 23 24 25 26 27 28 29 30 31 32 33
000
FTUS45 KPSR 011400 AAA
TAFPHX
TAF AMD
KPHX 011432Z 0115/0212 11005KT P6SM FEW070 SCT120 BKN250
     FM012000 28008KT P6SM FEW100 BKN250
     FM020400 14012KT P6SM VCTS SCT100CB BKN150
     FM020700 11007KT P6SM BKN100 OVC250=

USA.gov is the U.S. government's official web portal to all federal, state and local government web resources and services.